Time;durP1;ratioP1;P1;durP2;ratioP2;P2;SDS_P1;SDS_P2;PMS_P1;PMS_P2;Temp;Humidity;BMP_temperature;BMP_pressure;BME280_temperature;BME280_humidity;BME280_pressure;Samples;Min_cycle;Max_cycle;Signal;HPM_P1;HPM_P2
2022/04/02 00:00:14;;;;;;;11.50;10.70;;;4.40;53.50;;;;;;20767;6818;117539;-73
2022/04/02 00:02:40;;;;;;;15.47;14.47;;;4.20;54.40;;;;;;20587;6818;314998;-73
2022/04/02 00:05:05;;;;;;;14.60;13.70;;;4.30;55.00;;;;;;20586;6818;307417;-74
2022/04/02 00:07:31;;;;;;;11.33;10.60;;;4.60;53.90;;;;;;20804;6818;117667;-82
2022/04/02 00:09:57;;;;;;;11.37;10.57;;;4.50;53.60;;;;;;20789;6818;117417;-73
2022/04/02 00:12:22;;;;;;;10.75;9.95;;;4.20;54.20;;;;;;20808;6818;117812;-74
2022/04/02 00:14:48;;;;;;;14.00;13.10;;;4.00;55.10;;;;;;20593;6818;298768;-77
2022/04/02 00:17:13;;;;;;;14.18;13.30;;;4.20;55.80;;;;;;20585;6818;306669;-74
2022/04/02 00:19:39;;;;;;;13.70;12.90;;;4.50;55.10;;;;;;20586;6818;337189;-74
2022/04/02 00:22:04;;;;;;;11.23;10.52;;;4.80;54.20;;;;;;20779;6818;117816;-77
2022/04/02 00:24:30;;;;;;;13.27;12.47;;;4.70;53.80;;;;;;20584;6818;336961;-77
2022/04/02 00:26:55;;;;;;;11.48;10.68;;;4.80;53.60;;;;;;20797;6818;117879;-74
2022/04/02 00:29:22;;;;;;;13.83;12.93;;;4.60;53.70;;;;;;20584;6818;293577;-76
2022/04/02 00:31:48;;;;;;;13.82;12.93;;;4.70;53.40;;;;;;20578;6818;307126;-73
2022/04/02 00:34:14;;;;;;;11.95;11.15;;;4.90;53.00;;;;;;20784;6818;117660;-75
2022/04/02 00:36:39;;;;;;;11.20;10.40;;;4.70;53.10;;;;;;20800;6818;117739;-73
2022/04/02 00:39:05;;;;;;;14.10;13.20;;;4.40;53.90;;;;;;20585;6818;285698;-79
2022/04/02 00:41:30;;;;;;;14.50;13.60;;;4.50;54.10;;;;;;20563;6818;278321;-74
2022/04/02 00:43:59;;;;;;;11.57;10.77;;;4.70;53.50;;;;;;20780;6818;117825;-74
2022/04/02 00:46:25;;;;;;;10.40;9.70;;;4.40;54.50;;;;;;20783;6818;117394;-74
2022/04/02 00:48:51;;;;;;;9.97;9.30;;;4.40;54.60;;;;;;20797;6818;117223;-83
2022/04/02 00:51:18;;;;;;;10.43;9.70;;;4.00;56.00;;;;;;20805;6818;117373;-78
2022/04/02 00:53:43;;;;;;;14.17;13.27;;;3.90;55.90;;;;;;20585;6818;303103;-73
2022/04/02 00:56:08;;;;;;;15.77;14.68;;;4.10;55.30;;;;;;20562;6818;322981;-73
2022/04/02 00:58:34;;;;;;;13.43;12.53;;;4.40;55.10;;;;;;20797;6818;118246;-74
2022/04/02 01:00:59;;;;;;;12.10;11.20;;;4.40;54.80;;;;;;20801;6818;119514;-84
2022/04/02 01:03:27;;;;;;;16.30;15.20;;;4.20;55.20;;;;;;20600;6818;277995;-73
2022/04/02 01:05:50;;;;;;;15.73;14.63;;;4.30;55.70;;;;;;20593;6818;277281;-73
2022/04/02 01:08:17;;;;;;;16.12;15.02;;;4.60;54.40;;;;;;20564;6817;315291;-81
2022/04/02 01:10:44;;;;;;;13.50;12.50;;;4.90;53.20;;;;;;20802;6818;117558;-74
2022/04/02 01:13:09;;;;;;;13.25;12.15;;;4.40;54.20;;;;;;20797;6818;117459;-73
2022/04/02 01:15:35;;;;;;;13.53;12.53;;;4.40;54.30;;;;;;20802;6818;117599;-79
2022/04/02 01:18:00;;;;;;;16.73;15.53;;;4.20;55.40;;;;;;20568;6818;279433;-76
2022/04/02 01:20:29;;;;;;;17.63;16.43;;;4.20;54.50;;;;;;20589;6818;305820;-73
2022/04/02 01:22:54;;;;;;;17.97;16.77;;;4.50;53.70;;;;;;20579;6818;336130;-77
2022/04/02 01:25:20;;;;;;;14.95;13.85;;;4.80;53.30;;;;;;20799;6818;117341;-73
2022/04/02 01:27:46;;;;;;;14.40;13.30;;;4.40;54.20;;;;;;20801;6818;117934;-79
2022/04/02 01:30:13;;;;;;;14.63;13.40;;;4.40;54.10;;;;;;20766;6818;117398;-72
2022/04/02 01:32:38;;;;;;;17.90;16.70;;;4.20;54.80;;;;;;20584;6818;307521;-73
2022/04/02 01:35:04;;;;;;;15.67;14.43;;;4.30;54.80;;;;;;20799;6818;122106;-73
2022/04/02 01:37:30;;;;;;;14.03;13.00;;;4.20;54.70;;;;;;20793;6818;121448;-74
2022/04/02 01:39:55;;;;;;;17.95;16.65;;;4.10;55.60;;;;;;20572;6818;307492;-79
2022/04/02 01:42:24;;;;;;;16.20;14.80;;;4.20;55.20;;;;;;20804;6818;117538;-73
2022/04/02 01:44:51;;;;;;;14.03;12.97;;;4.10;55.80;;;;;;20793;6818;117098;-72
2022/04/02 01:47:13;;;;;;;18.30;17.00;;;4.10;55.80;;;;;;20571;6818;307664;-73
2022/04/02 01:49:38;;;;;;;15.43;14.10;;;4.30;55.20;;;;;;20804;6818;117514;-79
2022/04/02 01:52:04;;;;;;;18.57;17.17;;;4.20;54.90;;;;;;20555;6818;310241;-79
2022/04/02 01:54:30;;;;;;;16.17;14.77;;;4.30;54.70;;;;;;20789;6818;119981;-73
2022/04/02 01:56:56;;;;;;;19.40;17.90;;;4.30;54.70;;;;;;20586;6818;277742;-79
2022/04/02 01:59:21;;;;;;;16.10;14.87;;;4.40;54.40;;;;;;20798;6818;124210;-75
2022/04/02 02:01:47;;;;;;;19.20;17.70;;;4.40;54.40;;;;;;20583;6818;277599;-72
2022/04/02 02:04:12;;;;;;;18.27;16.83;;;4.50;54.50;;;;;;20567;6818;311557;-75
2022/04/02 02:06:39;;;;;;;15.23;14.13;;;4.70;53.80;;;;;;20800;6818;117531;-76
2022/04/02 02:09:04;;;;;;;14.85;13.65;;;4.70;53.90;;;;;;20793;6818;117411;-72
2022/04/02 02:11:29;;;;;;;15.20;13.70;;;4.40;54.60;;;;;;20798;6818;117190;-72
2022/04/02 02:13:55;;;;;;;14.57;13.33;;;4.00;56.40;;;;;;20782;6818;117712;-72
2022/04/02 02:16:21;;;;;;;17.70;16.50;;;4.00;56.50;;;;;;20592;6818;277734;-74
2022/04/02 02:18:47;;;;;;;18.37;17.08;;;4.10;55.40;;;;;;20592;6817;306606;-72
2022/04/02 02:21:13;;;;;;;14.97;13.77;;;4.50;54.30;;;;;;20804;6818;117571;-72
2022/04/02 02:23:38;;;;;;;15.23;14.07;;;4.40;54.00;;;;;;20802;6818;117413;-74
2022/04/02 02:26:03;;;;;;;18.00;16.60;;;4.20;54.70;;;;;;20569;6818;315192;-81
2022/04/02 02:28:29;;;;;;;14.57;13.37;;;4.30;54.40;;;;;;20804;6818;121238;-73
2022/04/02 02:30:55;;;;;;;18.30;17.00;;;4.20;54.20;;;;;;20584;6818;298690;-73
2022/04/02 02:36:05;;;;;;;18.25;16.85;;;4.20;54.70;;;;;;20564;6818;307881;-72
2022/04/02 02:38:31;;;;;;;17.73;16.50;;;4.40;54.00;;;;;;20582;6818;340435;-77
2022/04/02 02:40:56;;;;;;;18.27;16.87;;;4.60;53.30;;;;;;20584;6818;308017;-72
2022/04/02 02:43:22;;;;;;;17.47;16.23;;;4.80;52.50;;;;;;20587;6818;339939;-76
2022/04/02 02:45:48;;;;;;;16.93;15.57;;;4.90;52.00;;;;;;20588;6818;307549;-74
2022/04/02 02:48:13;;;;;;;17.70;16.50;;;5.10;51.60;;;;;;20562;6818;276934;-73
2022/04/02 02:50:39;;;;;;;17.27;15.97;;;5.20;51.00;;;;;;20586;6818;311681;-75
2022/04/02 02:53:04;;;;;;;14.43;13.30;;;5.30;50.90;;;;;;20799;6818;118204;-73
2022/04/02 02:55:30;;;;;;;15.95;14.65;;;4.90;51.10;;;;;;20586;6818;342874;-78
2022/04/02 02:57:55;;;;;;;14.60;13.47;;;4.80;51.70;;;;;;20780;6818;144960;-72
2022/04/02 03:00:21;;;;;;;12.80;11.82;;;4.60;52.10;;;;;;20802;6818;118193;-75
2022/04/02 03:02:47;;;;;;;12.53;11.53;;;4.30;53.30;;;;;;20793;6818;117402;-73
2022/04/02 03:05:13;;;;;;;16.70;15.40;;;4.20;54.10;;;;;;20599;6818;279288;-81
2022/04/02 03:07:38;;;;;;;16.63;15.43;;;4.20;54.10;;;;;;20586;6818;299107;-72
2022/04/02 03:10:04;;;;;;;13.90;12.70;;;4.50;53.30;;;;;;20775;6818;124252;-72
2022/04/02 03:12:30;;;;;;;15.57;14.27;;;4.40;53.10;;;;;;20582;6818;278266;-76
2022/04/02 03:14:55;;;;;;;16.30;15.10;;;4.40;52.80;;;;;;20587;6818;307401;-72
2022/04/02 03:17:21;;;;;;;13.77;12.77;;;4.60;52.20;;;;;;20801;6818;117234;-72
2022/04/02 03:19:47;;;;;;;14.87;13.80;;;4.50;53.50;;;;;;20578;6818;337043;-72
2022/04/02 03:22:13;;;;;;;15.50;14.30;;;4.40;52.70;;;;;;20562;6818;434149;-76
2022/04/02 03:24:39;;;;;;;15.82;14.52;;;4.80;51.70;;;;;;20590;6818;277543;-75
2022/04/02 03:27:04;;;;;;;12.97;11.97;;;4.80;51.60;;;;;;20798;6818;117692;-73
2022/04/02 03:29:30;;;;;;;15.80;14.70;;;4.60;52.00;;;;;;20580;6817;306708;-79
2022/04/02 03:31:56;;;;;;;12.93;11.93;;;4.60;52.40;;;;;;20781;6817;124064;-75
2022/04/02 03:34:22;;;;;;;12.52;11.43;;;4.10;53.30;;;;;;20802;6818;117960;-73
2022/04/02 03:36:48;;;;;;;12.03;11.03;;;4.10;53.40;;;;;;20799;6818;118111;-72
2022/04/02 03:39:15;;;;;;;11.33;10.53;;;3.70;55.10;;;;;;20799;6818;117300;-72
2022/04/02 03:41:41;;;;;;;11.40;10.40;;;3.60;55.00;;;;;;20800;6818;118032;-80
2022/04/02 03:44:06;;;;;;;15.47;14.37;;;3.50;55.50;;;;;;20572;6818;296019;-72
2022/04/02 03:49:18;;;;;;;10.90;10.10;;;3.70;55.50;;;;;;20800;6818;117519;-74
2022/04/02 03:51:43;;;;;;;15.10;13.93;;;3.50;55.70;;;;;;20594;6818;277564;-75
2022/04/02 03:54:09;;;;;;;12.00;11.07;;;3.60;55.70;;;;;;20786;6818;117563;-80
2022/04/02 03:56:35;;;;;;;11.97;10.97;;;3.70;55.80;;;;;;20807;6818;123093;-73
2022/04/02 03:59:01;;;;;;;11.77;10.67;;;3.50;56.00;;;;;;20794;6818;123115;-73
2022/04/02 04:01:26;;;;;;;14.50;13.48;;;3.40;56.50;;;;;;20576;6818;312409;-79
2022/04/02 04:03:51;;;;;;;14.80;13.60;;;3.50;56.50;;;;;;20576;6818;306925;-74
2022/04/02 04:06:18;;;;;;;11.80;10.90;;;3.90;55.60;;;;;;20775;6818;117894;-73
2022/04/02 04:08:42;;;;;;;13.87;12.83;;;3.90;55.20;;;;;;20565;6818;318877;-81
2022/04/02 04:11:10;;;;;;;14.70;13.20;;;4.20;53.40;;;;;;20591;6818;307299;-78
2022/04/02 04:13:34;;;;;;;11.27;10.27;;;4.20;53.80;;;;;;20767;6818;120398;-80
2022/04/02 04:16:01;;;;;;;11.20;10.13;;;3.80;55.00;;;;;;20766;6818;117712;-75
2022/04/02 04:18:27;;;;;;;14.50;13.00;;;3.80;54.50;;;;;;20591;6818;278105;-74
2022/04/02 04:20:52;;;;;;;14.23;13.10;;;3.80;54.10;;;;;;20566;6818;283983;-75
2022/04/02 04:23:18;;;;;;;13.73;12.63;;;4.30;53.00;;;;;;20582;6818;307446;-74
2022/04/02 04:25:44;;;;;;;13.88;12.68;;;4.30;53.00;;;;;;20590;6818;278431;-74
2022/04/02 04:28:09;;;;;;;13.87;12.67;;;4.50;52.50;;;;;;20563;6818;282314;-76
2022/04/02 04:30:35;;;;;;;11.32;10.52;;;4.50;52.10;;;;;;20799;6818;117865;-74
2022/04/02 04:33:02;;;;;;;12.93;11.83;;;4.30;52.30;;;;;;20590;6818;281303;-73
2022/04/02 04:35:27;;;;;;;13.25;12.25;;;4.40;52.50;;;;;;20588;6818;309841;-80
2022/04/02 04:37:52;;;;;;;11.07;10.17;;;4.30;52.40;;;;;;20800;6818;117209;-73
2022/04/02 04:40:18;;;;;;;10.27;9.32;;;4.20;52.80;;;;;;20777;6818;118256;-74
2022/04/02 04:42:43;;;;;;;12.77;11.70;;;3.90;53.50;;;;;;20583;6817;322521;-80
2022/04/02 04:45:09;;;;;;;13.95;12.75;;;3.80;53.30;;;;;;20593;6818;308246;-74
2022/04/02 04:47:34;;;;;;;11.47;10.37;;;4.00;53.00;;;;;;20798;6818;121443;-74
2022/04/02 04:50:00;;;;;;;14.68;11.12;;;3.90;53.20;;;;;;20790;6818;117338;-75
2022/04/02 04:52:26;;;;;;;10.57;9.57;;;3.70;54.70;;;;;;20811;6818;123310;-73
2022/04/02 04:54:51;;;;;;;11.40;9.17;;;3.50;55.70;;;;;;20798;6818;117029;-74
2022/04/02 04:57:17;;;;;;;11.73;10.80;;;3.40;55.80;;;;;;20580;6818;315728;-75
2022/04/02 04:59:44;;;;;;;13.40;8.60;;;3.60;56.40;;;;;;20803;6818;117740;-75
2022/04/02 05:02:12;;;;;;;11.97;10.87;;;3.60;55.80;;;;;;20568;6818;307489;-75
2022/04/02 05:04:35;;;;;;;9.80;8.80;;;3.80;55.80;;;;;;20790;6818;117495;-76
2022/04/02 05:07:00;;;;;;;8.93;8.18;;;3.80;55.40;;;;;;20783;6818;116907;-73
2022/04/02 05:09:26;;;;;;;8.53;7.70;;;3.60;55.70;;;;;;20796;6818;117746;-71
2022/04/02 05:11:53;;;;;;;10.13;9.27;;;3.50;55.70;;;;;;20584;6818;307080;-72
2022/04/02 05:14:21;;;;;;;9.47;8.57;;;3.50;55.70;;;;;;20777;6818;118671;-73
2022/04/02 05:16:46;;;;;;;8.27;7.60;;;3.50;55.30;;;;;;20800;6818;116980;-75
2022/04/02 05:19:13;;;;;;;8.38;7.78;;;3.10;55.70;;;;;;20797;6818;117315;-73
2022/04/02 05:21:38;;;;;;;10.13;7.23;;;3.10;55.70;;;;;;20798;6818;117832;-73
2022/04/02 05:24:05;;;;;;;10.67;7.97;;;2.80;56.70;;;;;;20779;6818;127306;-73
2022/04/02 05:26:32;;;;;;;8.30;7.57;;;2.70;57.10;;;;;;20774;6818;117067;-78
2022/04/02 05:28:59;;;;;;;8.20;7.40;;;2.60;57.10;;;;;;20802;6818;120764;-73
2022/04/02 05:31:25;;;;;;;8.00;7.40;;;2.60;57.20;;;;;;20795;6818;117099;-73
2022/04/02 05:33:50;;;;;;;9.03;8.23;;;2.50;57.50;;;;;;20796;6818;120634;-76
2022/04/02 05:36:15;;;;;;;8.57;7.87;;;2.40;57.70;;;;;;20789;6818;117341;-74
2022/04/02 05:38:41;;;;;;;8.80;7.37;;;2.40;57.90;;;;;;20802;6818;117888;-74
2022/04/02 05:41:07;;;;;;;10.43;9.63;;;2.40;58.20;;;;;;20587;6818;289386;-78
2022/04/02 05:43:32;;;;;;;8.90;8.00;;;2.60;57.90;;;;;;20798;6818;116919;-74
2022/04/02 05:45:59;;;;;;;11.00;10.00;;;2.70;57.30;;;;;;20568;6818;307393;-75
2022/04/02 05:48:25;;;;;;;10.67;9.63;;;2.90;56.70;;;;;;20764;6818;117489;-76
2022/04/02 05:50:50;;;;;;;9.87;9.07;;;3.00;56.60;;;;;;20591;6818;281874;-75
2022/04/02 05:53:17;;;;;;;11.10;10.20;;;3.20;56.40;;;;;;20559;6817;307530;-72
2022/04/02 05:55:42;;;;;;;9.00;8.20;;;3.50;55.10;;;;;;20778;6818;118537;-71
2022/04/02 05:58:07;;;;;;;10.20;9.30;;;3.60;54.90;;;;;;20555;6818;337215;-71
2022/04/02 06:00:33;;;;;;;9.70;9.00;;;3.60;55.10;;;;;;20556;6818;336568;-72
2022/04/02 06:02:58;;;;;;;8.63;8.03;;;3.90;53.60;;;;;;20804;6818;116932;-71
2022/04/02 06:05:24;;;;;;;9.80;9.10;;;3.80;53.70;;;;;;20570;6818;307134;-76
2022/04/02 06:07:50;;;;;;;8.60;8.00;;;3.90;53.70;;;;;;20815;6818;118005;-74
2022/04/02 06:10:16;;;;;;;8.03;7.47;;;3.80;53.70;;;;;;20784;6818;116841;-73
2022/04/02 06:12:41;;;;;;;7.83;7.23;;;3.50;54.30;;;;;;20797;6818;117510;-74
2022/04/02 06:15:09;;;;;;;7.75;7.25;;;3.20;55.50;;;;;;20790;6818;116898;-73
2022/04/02 06:17:34;;;;;;;15.50;14.00;;;3.20;55.50;;;;;;20782;6818;120591;-72
2022/04/02 06:19:59;;;;;;;9.90;9.30;;;3.10;55.80;;;;;;20562;6818;282717;-73
2022/04/02 06:22:25;;;;;;;9.47;8.87;;;3.20;55.40;;;;;;20564;6818;277594;-72
2022/04/02 06:24:50;;;;;;;8.77;8.17;;;3.60;54.40;;;;;;20790;6818;119141;-73
2022/04/02 06:27:16;;;;;;;10.00;9.40;;;3.60;54.10;;;;;;20584;6818;307838;-73
2022/04/02 06:29:42;;;;;;;10.63;9.82;;;3.90;54.10;;;;;;20578;6818;307082;-71
2022/04/02 06:32:08;;;;;;;8.63;8.10;;;3.90;53.50;;;;;;20789;6818;117304;-72
2022/04/02 06:34:35;;;;;;;9.80;9.20;;;3.90;53.60;;;;;;20585;6818;307503;-72
2022/04/02 06:37:00;;;;;;;10.25;9.65;;;3.90;53.60;;;;;;20591;6818;282830;-69
2022/04/02 06:39:26;;;;;;;11.18;10.48;;;4.10;53.30;;;;;;20591;6818;282109;-73
2022/04/02 06:41:51;;;;;;;8.60;8.10;;;4.40;52.80;;;;;;20800;6818;117322;-73
2022/04/02 06:44:17;;;;;;;9.90;9.30;;;4.20;52.70;;;;;;20572;6818;311497;-71
2022/04/02 06:46:43;;;;;;;9.30;8.80;;;4.20;52.70;;;;;;20584;6818;307406;-71
2022/04/02 06:49:09;;;;;;;9.55;8.98;;;4.40;52.30;;;;;;20591;6818;307442;-72
2022/04/02 06:51:34;;;;;;;9.40;8.75;;;4.50;51.90;;;;;;20587;6818;306453;-73
2022/04/02 06:53:59;;;;;;;7.72;7.22;;;4.70;51.50;;;;;;20781;6818;118266;-70
2022/04/02 06:56:25;;;;;;;8.60;8.10;;;4.50;51.70;;;;;;20580;6818;340263;-75
2022/04/02 06:58:51;;;;;;;7.78;7.37;;;4.30;52.00;;;;;;20789;6818;116971;-73
2022/04/02 07:01:17;;;;;;;6.87;6.43;;;4.20;51.90;;;;;;20794;6818;117040;-70
2022/04/02 07:03:43;;;;;;;6.70;6.30;;;4.00;52.70;;;;;;20796;6818;123176;-73
2022/04/02 07:06:09;;;;;;;6.90;6.20;;;3.70;53.40;;;;;;20790;6817;117278;-71
2022/04/02 07:08:37;;;;;;;8.05;7.65;;;3.50;53.90;;;;;;20572;6818;335978;-73
2022/04/02 07:11:03;;;;;;;6.80;6.40;;;3.70;54.00;;;;;;20801;6818;116679;-74
2022/04/02 07:13:29;;;;;;;7.93;7.53;;;3.70;54.00;;;;;;20571;6818;280269;-82
2022/04/02 07:15:55;;;;;;;7.20;6.70;;;3.80;53.60;;;;;;20805;6818;117855;-76
2022/04/02 07:18:21;;;;;;;6.57;6.17;;;3.80;53.60;;;;;;20646;6818;117438;-73
2022/04/02 07:20:46;;;;;;;7.60;7.05;;;3.70;54.00;;;;;;20563;6818;306908;-73
2022/04/02 07:23:12;;;;;;;6.23;5.93;;;3.80;53.80;;;;;;20790;6818;117101;-72
2022/04/02 07:25:40;;;;;;;6.57;6.13;;;3.80;53.60;;;;;;20783;6818;117274;-74
2022/04/02 07:28:06;;;;;;;5.80;5.40;;;3.70;53.80;;;;;;20787;6818;117579;-75
2022/04/02 07:30:32;;;;;;;5.97;5.63;;;3.50;54.20;;;;;;20786;6818;119207;-75
2022/04/02 07:32:58;;;;;;;6.05;5.75;;;3.30;55.20;;;;;;20786;6818;116941;-75
2022/04/02 07:35:24;;;;;;;7.90;7.40;;;3.30;55.20;;;;;;20578;6818;307839;-74
2022/04/02 07:38:03;;;;;;;6.60;6.15;;;3.50;54.80;;;;;;20790;6818;118418;-72
2022/04/02 07:40:28;;;;;;;7.82;7.30;;;3.60;54.50;;;;;;20564;6818;336449;-73
2022/04/02 07:43:14;;;;;;;7.67;7.17;;;4.10;53.00;;;;;;20570;6818;295004;-73
2022/04/02 07:45:40;;;;;;;7.20;6.80;;;4.10;53.00;;;;;;20567;6818;311637;-71
2022/04/02 07:48:05;;;;;;;7.93;7.43;;;4.40;51.70;;;;;;20565;6818;278025;-69
2022/04/02 07:50:31;;;;;;;6.27;5.87;;;4.60;52.00;;;;;;20780;6818;117122;-72
2022/04/02 07:52:56;;;;;;;7.90;7.40;;;4.40;51.40;;;;;;20586;6818;282717;-75
2022/04/02 07:55:22;;;;;;;8.30;7.70;;;4.40;51.60;;;;;;20798;6818;116779;-73
2022/04/02 07:57:49;;;;;;;6.50;6.10;;;4.30;51.90;;;;;;20797;6818;117027;-72
2022/04/02 08:00:14;;;;;;;8.20;7.70;;;4.10;52.70;;;;;;20538;6818;281938;-74
2022/04/02 08:02:42;;;;;;;7.03;6.57;;;4.10;52.70;;;;;;20796;6818;116938;-70
2022/04/02 08:05:07;;;;;;;6.57;6.00;;;4.10;53.10;;;;;;20787;6818;117276;-70
2022/04/02 08:07:33;;;;;;;7.87;7.37;;;4.00;53.40;;;;;;20577;6818;306998;-71
2022/04/02 08:09:58;;;;;;;6.37;6.00;;;4.10;52.90;;;;;;20776;6818;117326;-70
2022/04/02 08:12:26;;;;;;;7.95;7.40;;;4.10;52.80;;;;;;20590;6818;288365;-70
2022/04/02 08:14:52;;;;;;;6.80;6.40;;;4.20;52.30;;;;;;20798;6818;117318;-69
2022/04/02 08:17:21;;;;;;;6.80;6.30;;;4.20;52.30;;;;;;20799;6817;116691;-70
2022/04/02 08:19:46;;;;;;;7.13;6.53;;;4.00;52.70;;;;;;20795;6818;116751;-69
2022/04/02 08:22:12;;;;;;;6.80;6.32;;;3.90;53.50;;;;;;20767;6818;116906;-69
2022/04/02 08:24:38;;;;;;;8.40;7.90;;;3.70;53.70;;;;;;20580;6818;314282;-68
2022/04/02 08:27:03;;;;;;;8.73;8.10;;;3.80;53.20;;;;;;20588;6818;306909;-68
2022/04/02 08:29:29;;;;;;;8.70;8.20;;;4.20;52.60;;;;;;20550;6818;336616;-68
2022/04/02 08:32:01;;;;;;;7.37;6.77;;;4.50;51.70;;;;;;20790;6818;120606;-72
2022/04/02 08:34:26;;;;;;;7.50;6.87;;;4.50;51.70;;;;;;20649;6818;117438;-68
2022/04/02 08:37:02;;;;;;;8.00;7.50;;;4.20;52.20;;;;;;20552;6818;278039;-69
2022/04/02 08:39:31;;;;;;;8.48;7.87;;;4.30;52.20;;;;;;20575;6818;336451;-69
2022/04/02 08:42:00;;;;;;;7.50;7.00;;;4.60;51.70;;;;;;19825;6818;120832;-70
2022/04/02 08:44:35;;;;;;;7.07;6.37;;;4.60;51.80;;;;;;20067;6818;117463;-67
2022/04/02 08:47:04;;;;;;;6.43;6.03;;;4.50;52.40;;;;;;20810;6818;116979;-69
2022/04/02 08:49:36;;;;;;;8.20;7.70;;;4.30;52.80;;;;;;19892;6824;307546;-70
2022/04/02 08:52:14;;;;;;;8.00;7.40;;;4.30;52.50;;;;;;20524;6824;309227;-71
2022/04/02 08:54:40;;;;;;;8.30;7.80;;;4.60;51.10;;;;;;20614;6808;336153;-71
2022/04/02 08:57:15;;;;;;;6.83;6.43;;;4.90;50.40;;;;;;20641;6808;117404;-71
2022/04/02 08:59:41;;;;;;;8.30;7.62;;;4.80;50.80;;;;;;20600;6808;284128;-71
2022/04/02 09:02:39;;;;;;;8.32;7.80;;;4.80;50.80;;;;;;20597;6808;308699;-69
2022/04/02 09:05:28;;;;;;;7.40;7.00;;;4.90;50.00;;;;;;20614;6808;277607;-72
2022/04/02 09:08:32;;;;;;;7.60;7.13;;;5.10;49.70;;;;;;20829;6808;116966;-71
2022/04/02 09:11:05;;;;;;;6.23;5.90;;;4.90;50.00;;;;;;20790;6808;117608;-72
2022/04/02 09:13:47;;;;;;;7.45;6.95;;;4.50;51.00;;;;;;20611;6808;291604;-72
2022/04/02 09:16:21;;;;;;;7.70;7.10;;;4.80;51.00;;;;;;20594;6808;311265;-72
2022/04/02 09:19:06;;;;;;;7.53;6.93;;;5.00;50.30;;;;;;20588;6808;277098;-75
2022/04/02 09:21:56;;;;;;;6.43;6.03;;;4.90;49.50;;;;;;20743;6808;116985;-75
2022/04/02 09:24:21;;;;;;;7.47;6.97;;;4.50;50.60;;;;;;20801;6808;117200;-77
2022/04/02 09:27:16;;;;;;;6.33;5.93;;;4.50;50.70;;;;;;20733;6808;119743;-75
2022/04/02 09:30:18;;;;;;;7.10;6.70;;;4.20;51.30;;;;;;20318;6808;333763;-73
2022/04/02 09:33:04;;;;;;;8.57;8.07;;;4.30;51.60;;;;;;20595;6808;307477;-72
2022/04/02 09:35:40;;;;;;;8.25;7.65;;;4.90;50.10;;;;;;20593;6808;322075;-72
2022/04/02 09:38:42;;;;;;;7.33;6.83;;;4.80;50.00;;;;;;20770;6808;116961;-73
2022/04/02 09:41:28;;;;;;;7.95;7.45;;;4.70;50.10;;;;;;20569;6808;277119;-85
2022/04/02 09:44:13;;;;;;;7.93;7.32;;;4.60;49.70;;;;;;20605;6808;277385;-71
2022/04/02 09:46:52;;;;;;;6.43;6.03;;;4.80;49.20;;;;;;20816;6808;117092;-71
2022/04/02 09:49:28;;;;;;;7.73;7.30;;;4.50;49.70;;;;;;20600;6808;309507;-73
2022/04/02 09:52:03;;;;;;;6.50;5.87;;;4.50;49.70;;;;;;20806;6808;117890;-75
2022/04/02 09:54:29;;;;;;;7.63;7.03;;;4.50;50.30;;;;;;20594;6808;306997;-73
2022/04/02 09:56:54;;;;;;;6.40;6.00;;;4.50;50.00;;;;;;20803;6808;116958;-73
2022/04/02 09:59:40;;;;;;;7.30;6.87;;;4.20;50.70;;;;;;20801;6808;116999;-72
2022/04/02 10:02:05;;;;;;;6.30;5.90;;;4.20;50.70;;;;;;20813;6808;123382;-69
2022/04/02 10:04:52;;;;;;;6.60;6.20;;;4.10;51.50;;;;;;20836;6808;117105;-70
2022/04/02 10:07:26;;;;;;;6.80;6.37;;;3.90;52.00;;;;;;20833;6808;117374;-65
2022/04/02 10:09:51;;;;;;;10.63;9.93;;;3.80;52.50;;;;;;20536;6808;278526;-66
2022/04/02 10:12:17;;;;;;;11.20;10.50;;;4.00;52.10;;;;;;20585;6808;306738;-71
2022/04/02 10:14:43;;;;;;;7.47;6.93;;;4.50;52.00;;;;;;20834;6808;117500;-68
2022/04/02 10:17:09;;;;;;;6.90;6.40;;;4.50;52.00;;;;;;20821;6808;117332;-65
2022/04/02 10:19:34;;;;;;;10.00;9.30;;;4.40;52.00;;;;;;20606;6808;312114;-67
2022/04/02 10:22:04;;;;;;;7.93;7.40;;;4.40;51.00;;;;;;20788;6808;118023;-68
2022/04/02 10:24:37;;;;;;;7.60;7.10;;;4.40;51.30;;;;;;20800;6808;117546;-79
2022/04/02 10:27:01;;;;;;;7.50;7.00;;;4.20;51.80;;;;;;20820;6808;117652;-67
2022/04/02 10:29:35;;;;;;;8.60;8.00;;;4.20;51.50;;;;;;20615;6808;277845;-71
2022/04/02 10:32:00;;;;;;;9.20;8.70;;;4.20;51.60;;;;;;20521;6808;311279;-72
2022/04/02 10:34:36;;;;;;;19.57;14.57;;;4.50;50.90;;;;;;20576;6808;306604;-71
2022/04/02 10:37:11;;;;;;;9.60;9.00;;;4.80;50.80;;;;;;20593;6808;310986;-74
2022/04/02 10:39:37;;;;;;;9.80;9.20;;;5.00;49.50;;;;;;20539;6807;310910;-69
2022/04/02 10:42:02;;;;;;;9.98;9.27;;;5.20;49.60;;;;;;20556;6808;307586;-72
2022/04/02 10:44:31;;;;;;;9.27;8.60;;;5.40;49.00;;;;;;20830;6808;117060;-69
2022/04/02 10:46:56;;;;;;;8.17;7.63;;;5.20;49.20;;;;;;20791;6808;116863;-71
2022/04/02 10:49:22;;;;;;;9.45;8.80;;;4.90;49.90;;;;;;20615;6808;278487;-66
2022/04/02 10:51:47;;;;;;;11.20;10.30;;;5.00;50.20;;;;;;20598;6808;307569;-71
2022/04/02 10:54:13;;;;;;;9.45;8.75;;;5.10;49.30;;;;;;20793;6808;117805;-71
2022/04/02 10:56:45;;;;;;;9.20;8.13;;;5.10;49.90;;;;;;20822;6808;117056;-70
2022/04/02 10:59:10;;;;;;;7.93;7.43;;;5.00;50.30;;;;;;20812;6808;117384;-70
2022/04/02 11:01:39;;;;;;;10.07;9.40;;;4.80;50.80;;;;;;20616;6808;307076;-72
2022/04/02 11:04:07;;;;;;;8.70;8.10;;;4.90;50.40;;;;;;20806;6808;117307;-71
2022/04/02 11:06:44;;;;;;;9.63;9.02;;;5.00;51.20;;;;;;20584;6808;307508;-70
2022/04/02 11:09:39;;;;;;;9.23;8.63;;;5.00;50.50;;;;;;20615;6808;311293;-71
2022/04/02 11:12:08;;;;;;;8.90;8.20;;;5.30;49.20;;;;;;20804;6808;121359;-71
2022/04/02 11:14:40;;;;;;;8.33;7.83;;;5.30;49.70;;;;;;20820;6808;119325;-69
2022/04/02 11:17:05;;;;;;;9.47;8.87;;;5.20;50.60;;;;;;20619;6808;277117;-72
2022/04/02 11:19:54;;;;;;;10.37;9.70;;;5.30;50.20;;;;;;20617;6808;336107;-71
2022/04/02 11:22:22;;;;;;;9.93;9.27;;;5.60;48.90;;;;;;20602;6808;278930;-69
2022/04/02 11:25:02;;;;;;;9.93;9.30;;;5.90;48.80;;;;;;20760;6808;117002;-71
2022/04/02 11:27:26;;;;;;;9.13;8.53;;;5.80;49.00;;;;;;20817;6808;117428;-71
2022/04/02 11:29:52;;;;;;;8.05;7.55;;;5.60;49.70;;;;;;20819;6808;120811;-71
2022/04/02 11:32:17;;;;;;;7.90;7.40;;;5.40;50.20;;;;;;20813;6808;117937;-70
2022/04/02 11:34:43;;;;;;;9.30;8.80;;;5.30;50.90;;;;;;20588;6808;336075;-72
2022/04/02 11:37:09;;;;;;;10.13;9.52;;;5.40;49.90;;;;;;20599;6808;306069;-69
2022/04/02 11:39:36;;;;;;;9.18;8.52;;;5.60;48.30;;;;;;20821;6808;117109;-71
2022/04/02 11:42:00;;;;;;;8.00;7.50;;;5.60;48.90;;;;;;20761;6808;117519;-73
2022/04/02 11:44:37;;;;;;;8.77;8.17;;;5.10;49.90;;;;;;20819;6808;117140;-70
2022/04/02 11:47:05;;;;;;;9.98;9.38;;;5.10;49.90;;;;;;20605;6808;336494;-77
2022/04/02 11:49:36;;;;;;;9.70;9.00;;;5.20;49.70;;;;;;20809;6808;117442;-72
2022/04/02 11:52:07;;;;;;;10.43;9.73;;;5.20;49.90;;;;;;20561;6807;282593;-78
2022/04/02 11:54:32;;;;;;;11.00;10.40;;;5.30;49.30;;;;;;20608;6808;336651;-74
2022/04/02 11:57:07;;;;;;;9.70;9.10;;;5.40;48.90;;;;;;20806;6808;117602;-72
2022/04/02 11:59:36;;;;;;;9.03;8.53;;;5.30;49.10;;;;;;20797;6808;116822;-75
2022/04/02 12:02:01;;;;;;;9.00;8.37;;;5.00;49.80;;;;;;20747;6808;119066;-76
2022/04/02 12:04:32;;;;;;;38.40;26.77;;;4.70;50.50;;;;;;20783;6808;117521;-74
2022/04/02 12:07:08;;;;;;;12.10;11.30;;;4.60;51.50;;;;;;20555;6808;336586;-73
2022/04/02 12:09:34;;;;;;;11.15;10.50;;;4.70;51.50;;;;;;20552;6808;307444;-76
2022/04/02 12:12:00;;;;;;;11.37;10.67;;;5.40;49.10;;;;;;20487;6808;277244;-79
2022/04/02 12:14:32;;;;;;;11.83;11.10;;;5.40;49.10;;;;;;20552;6808;307633;-76
2022/04/02 12:17:14;;;;;;;12.17;11.17;;;5.60;48.70;;;;;;20741;6808;67710;-73
2022/04/02 12:19:44;;;;;;;13.60;12.30;;;5.50;49.10;;;;;;20729;6808;114793;-75
2022/04/02 12:22:27;;;;;;;16.53;15.03;;;5.20;50.50;;;;;;20511;6808;277692;-70
2022/04/02 12:25:03;;;;;;;12.67;11.67;;;5.20;50.40;;;;;;20773;6808;119726;-76
2022/04/02 12:27:32;;;;;;;10.00;9.30;;;5.20;50.40;;;;;;20774;6808;117613;-75
2022/04/02 12:30:01;;;;;;;10.57;9.77;;;5.00;50.20;;;;;;20773;6808;120990;-74
2022/04/02 12:32:28;;;;;;;12.68;11.77;;;4.70;50.40;;;;;;20599;6808;278074;-73
2022/04/02 12:34:59;;;;;;;10.90;10.10;;;4.80;50.10;;;;;;20759;6808;119351;-76
2022/04/02 12:37:32;;;;;;;12.37;11.37;;;4.50;51.00;;;;;;20719;6808;117369;-74
2022/04/02 12:40:01;;;;;;;14.33;13.23;;;4.50;50.40;;;;;;20500;6808;283017;-77
2022/04/02 12:42:37;;;;;;;12.23;11.33;;;4.50;50.40;;;;;;20724;6808;119822;-77
2022/04/02 12:45:09;;;;;;;13.37;12.27;;;4.50;50.70;;;;;;20532;6808;314898;-76
2022/04/02 12:47:36;;;;;;;10.73;10.03;;;4.60;50.30;;;;;;20737;6808;67689;-76